Decoded Metar for LEBB (BILBAO in SPAIN) (IATA:BIO) | Meteo·Mobile Aviation Weather
aviador You're here:

LEBB Decoded Metar

BILBAO in SPAIN
Report Time2019-07-23 03:30:00
UTC Time2019-07-23 03:52:55
Flight Rules vfr VFR
Wind080° at 04 kt
W.Decomp.*RWY 10: 3.8 kt HW 1.2 kt LCW
RWY 12: 3.2 kt HW 2.5 kt LCW
Visibility9999 m
Phenomena:N/A
Clouds:N/A
Expected CloudBase > 400 ft AGL from Temp-Dew spread
CeilingNone
Temp22°C (ISA +7)
Dew Point21°C (94% RH)
QNH1014 hPa
Density Alt1,247 ft
Elevation112 ft
Report Wrong Elevation
Raw Report
METAR LEBB 230330Z 08004KT 030V110 CAVOK 22/21 Q1014 NOSIG=

Extra information for LEBB:More info

Metar Taf Metar & Taf Last 4 Metars F.Rules Stats Wind Profile Meteogram Temp Stats Airport Information Weather charts Add Link Nearby VenuesMetar ALERT Operation Metar Decoded Social comments